sensor_id;sensor_type;location;lat;lon;timestamp;temperature;humidity
66962;HTU21D;53897;51.126;5.868;2022-11-25T00:01:16;22.61;45.32
66962;HTU21D;53897;51.126;5.868;2022-11-25T00:03:44;22.61;45.30
66962;HTU21D;53897;51.126;5.868;2022-11-25T00:06:12;22.60;45.28
66962;HTU21D;53897;51.126;5.868;2022-11-25T00:08:39;22.58;45.28
66962;HTU21D;53897;51.126;5.868;2022-11-25T00:11:06;22.56;45.26
66962;HTU21D;53897;51.126;5.868;2022-11-25T00:13:32;22.55;45.24
66962;HTU21D;53897;51.126;5.868;2022-11-25T00:16:03;22.53;45.22
66962;HTU21D;53897;51.126;5.868;2022-11-25T00:18:29;22.53;45.21
66962;HTU21D;53897;51.126;5.868;2022-11-25T00:20:56;22.51;45.20
66962;HTU21D;53897;51.126;5.868;2022-11-25T00:23:22;22.49;45.18
66962;HTU21D;53897;51.126;5.868;2022-11-25T00:25:48;22.48;45.19
66962;HTU21D;53897;51.126;5.868;2022-11-25T00:28:14;22.47;45.16
66962;HTU21D;53897;51.126;5.868;2022-11-25T00:30:40;22.46;45.16
66962;HTU21D;53897;51.126;5.868;2022-11-25T00:33:06;22.44;45.18
66962;HTU21D;53897;51.126;5.868;2022-11-25T00:35:33;22.43;45.21
66962;HTU21D;53897;51.126;5.868;2022-11-25T00:37:59;22.42;45.21
66962;HTU21D;53897;51.126;5.868;2022-11-25T00:40:25;22.41;45.21
66962;HTU21D;53897;51.126;5.868;2022-11-25T00:42:51;22.40;45.19
66962;HTU21D;53897;51.126;5.868;2022-11-25T00:45:36;22.40;45.14
66962;HTU21D;53897;51.126;5.868;2022-11-25T00:48:01;22.38;45.13
66962;HTU21D;53897;51.126;5.868;2022-11-25T00:50:27;22.37;45.13
66962;HTU21D;53897;51.126;5.868;2022-11-25T00:52:53;22.36;45.12
66962;HTU21D;53897;51.126;5.868;2022-11-25T00:55:18;22.35;45.10
66962;HTU21D;53897;51.126;5.868;2022-11-25T00:57:44;22.34;45.09
66962;HTU21D;53897;51.126;5.868;2022-11-25T01:00:11;22.33;45.06
66962;HTU21D;53897;51.126;5.868;2022-11-25T01:02:39;22.32;45.05
66962;HTU21D;53897;51.126;5.868;2022-11-25T01:05:05;22.31;45.04
66962;HTU21D;53897;51.126;5.868;2022-11-25T01:07:33;22.31;45.04
66962;HTU21D;53897;51.126;5.868;2022-11-25T01:09:58;22.29;45.02
66962;HTU21D;53897;51.126;5.868;2022-11-25T01:12:24;22.26;44.98
66962;HTU21D;53897;51.126;5.868;2022-11-25T01:14:50;22.26;44.96
66962;HTU21D;53897;51.126;5.868;2022-11-25T01:17:16;22.26;44.94
66962;HTU21D;53897;51.126;5.868;2022-11-25T01:19:41;22.24;44.93
66962;HTU21D;53897;51.126;5.868;2022-11-25T01:22:08;22.24;44.93
66962;HTU21D;53897;51.126;5.868;2022-11-25T01:24:34;22.23;44.92
66962;HTU21D;53897;51.126;5.868;2022-11-25T01:27:00;22.23;44.90
66962;HTU21D;53897;51.126;5.868;2022-11-25T01:29:25;22.21;44.90
66962;HTU21D;53897;51.126;5.868;2022-11-25T01:31:55;22.22;44.90
66962;HTU21D;53897;51.126;5.868;2022-11-25T01:34:24;22.19;44.88
66962;HTU21D;53897;51.126;5.868;2022-11-25T01:36:50;22.19;44.88
66962;HTU21D;53897;51.126;5.868;2022-11-25T01:39:21;22.17;44.87
66962;HTU21D;53897;51.126;5.868;2022-11-25T01:41:48;22.16;44.86
66962;HTU21D;53897;51.126;5.868;2022-11-25T01:44:17;22.14;44.86
66962;HTU21D;53897;51.126;5.868;2022-11-25T01:49:48;22.12;44.80
66962;HTU21D;53897;51.126;5.868;2022-11-25T01:52:26;22.10;44.81
66962;HTU21D;53897;51.126;5.868;2022-11-25T01:54:58;22.12;44.82
66962;HTU21D;53897;51.126;5.868;2022-11-25T01:57:45;22.11;44.77
66962;HTU21D;53897;51.126;5.868;2022-11-25T02:00:12;22.09;44.78
66962;HTU21D;53897;51.126;5.868;2022-11-25T02:02:47;22.07;44.76
66962;HTU21D;53897;51.126;5.868;2022-11-25T02:05:18;22.06;44.74
66962;HTU21D;53897;51.126;5.868;2022-11-25T02:07:47;22.05;44.70
66962;HTU21D;53897;51.126;5.868;2022-11-25T02:10:18;22.05;44.69
66962;HTU21D;53897;51.126;5.868;2022-11-25T02:12:47;22.04;44.64
66962;HTU21D;53897;51.126;5.868;2022-11-25T02:15:14;22.04;44.61
66962;HTU21D;53897;51.126;5.868;2022-11-25T02:17:41;22.02;44.61
66962;HTU21D;53897;51.126;5.868;2022-11-25T02:20:19;22.02;44.58
66962;HTU21D;53897;51.126;5.868;2022-11-25T02:22:53;22.01;44.60
66962;HTU21D;53897;51.126;5.868;2022-11-25T02:25:24;21.99;44.54
66962;HTU21D;53897;51.126;5.868;2022-11-25T02:28:29;21.99;44.60
66962;HTU21D;53897;51.126;5.868;2022-11-25T02:30:48;21.97;44.58
66962;HTU21D;53897;51.126;5.868;2022-11-25T02:33:14;21.96;44.57
66962;HTU21D;53897;51.126;5.868;2022-11-25T02:35:58;21.96;44.56
66962;HTU21D;53897;51.126;5.868;2022-11-25T02:38:58;21.95;44.54
66962;HTU21D;53897;51.126;5.868;2022-11-25T02:41:36;21.93;44.51
66962;HTU21D;53897;51.126;5.868;2022-11-25T02:44:05;21.91;44.54
66962;HTU21D;53897;51.126;5.868;2022-11-25T02:46:32;21.91;44.55
66962;HTU21D;53897;51.126;5.868;2022-11-25T02:49:01;21.91;44.53
66962;HTU21D;53897;51.126;5.868;2022-11-25T02:51:29;21.89;44.56
66962;HTU21D;53897;51.126;5.868;2022-11-25T02:53:59;21.89;44.54
66962;HTU21D;53897;51.126;5.868;2022-11-25T02:56:30;21.88;44.58
66962;HTU21D;53897;51.126;5.868;2022-11-25T02:58:57;21.87;44.61
66962;HTU21D;53897;51.126;5.868;2022-11-25T03:01:26;21.87;44.61
66962;HTU21D;53897;51.126;5.868;2022-11-25T03:03:52;21.85;44.61
66962;HTU21D;53897;51.126;5.868;2022-11-25T03:06:18;21.84;44.61
66962;HTU21D;53897;51.126;5.868;2022-11-25T03:08:43;21.83;44.63
66962;HTU21D;53897;51.126;5.868;2022-11-25T03:11:11;21.83;44.66
66962;HTU21D;53897;51.126;5.868;2022-11-25T03:13:37;21.81;44.66
66962;HTU21D;53897;51.126;5.868;2022-11-25T03:16:03;21.81;44.66
66962;HTU21D;53897;51.126;5.868;2022-11-25T03:18:29;21.80;44.67
66962;HTU21D;53897;51.126;5.868;2022-11-25T03:20:55;21.80;44.69
66962;HTU21D;53897;51.126;5.868;2022-11-25T03:23:23;21.80;44.69
66962;HTU21D;53897;51.126;5.868;2022-11-25T03:25:53;21.79;44.70
66962;HTU21D;53897;51.126;5.868;2022-11-25T03:28:19;21.79;44.70
66962;HTU21D;53897;51.126;5.868;2022-11-25T03:30:46;21.77;44.68
66962;HTU21D;53897;51.126;5.868;2022-11-25T03:33:11;21.78;44.66
66962;HTU21D;53897;51.126;5.868;2022-11-25T03:35:38;21.78;44.67
66962;HTU21D;53897;51.126;5.868;2022-11-25T03:38:04;21.76;44.66
66962;HTU21D;53897;51.126;5.868;2022-11-25T03:40:33;21.76;44.66
66962;HTU21D;53897;51.126;5.868;2022-11-25T03:42:58;21.76;44.64
66962;HTU21D;53897;51.126;5.868;2022-11-25T03:45:24;21.74;44.64
66962;HTU21D;53897;51.126;5.868;2022-11-25T03:47:50;21.74;44.65
66962;HTU21D;53897;51.126;5.868;2022-11-25T03:50:16;21.73;44.66
66962;HTU21D;53897;51.126;5.868;2022-11-25T03:52:44;21.73;44.64
66962;HTU21D;53897;51.126;5.868;2022-11-25T03:55:10;21.70;44.65
66962;HTU21D;53897;51.126;5.868;2022-11-25T03:57:39;21.73;44.61
66962;HTU21D;53897;51.126;5.868;2022-11-25T04:00:06;21.70;44.65
66962;HTU21D;53897;51.126;5.868;2022-11-25T04:02:44;21.70;44.65
66962;HTU21D;53897;51.126;5.868;2022-11-25T04:05:10;21.68;44.65
66962;HTU21D;53897;51.126;5.868;2022-11-25T04:07:37;21.68;44.68
66962;HTU21D;53897;51.126;5.868;2022-11-25T04:10:04;21.66;44.68
66962;HTU21D;53897;51.126;5.868;2022-11-25T04:12:32;21.66;44.68
66962;HTU21D;53897;51.126;5.868;2022-11-25T04:15:23;21.65;44.68
66962;HTU21D;53897;51.126;5.868;2022-11-25T04:17:52;21.65;44.68
66962;HTU21D;53897;51.126;5.868;2022-11-25T04:20:18;21.64;44.67
66962;HTU21D;53897;51.126;5.868;2022-11-25T04:22:49;21.64;44.67
66962;HTU21D;53897;51.126;5.868;2022-11-25T04:25:17;21.63;44.67
66962;HTU21D;53897;51.126;5.868;2022-11-25T04:27:42;21.62;44.67
66962;HTU21D;53897;51.126;5.868;2022-11-25T04:30:09;21.62;44.67
66962;HTU21D;53897;51.126;5.868;2022-11-25T04:32:38;21.61;44.67
66962;HTU21D;53897;51.126;5.868;2022-11-25T04:35:06;21.61;44.67
66962;HTU21D;53897;51.126;5.868;2022-11-25T04:37:32;21.61;44.68
66962;HTU21D;53897;51.126;5.868;2022-11-25T04:39:58;21.59;44.67
66962;HTU21D;53897;51.126;5.868;2022-11-25T04:42:24;21.60;44.67
66962;HTU21D;53897;51.126;5.868;2022-11-25T04:44:57;21.59;44.67
66962;HTU21D;53897;51.126;5.868;2022-11-25T04:47:23;21.58;44.66
66962;HTU21D;53897;51.126;5.868;2022-11-25T04:49:48;21.57;44.67
66962;HTU21D;53897;51.126;5.868;2022-11-25T04:52:15;21.57;44.66
66962;HTU21D;53897;51.126;5.868;2022-11-25T04:54:41;21.57;44.67
66962;HTU21D;53897;51.126;5.868;2022-11-25T04:57:12;21.54;44.65
66962;HTU21D;53897;51.126;5.868;2022-11-25T04:59:40;21.54;44.67
66962;HTU21D;53897;51.126;5.868;2022-11-25T05:02:24;21.54;44.67
66962;HTU21D;53897;51.126;5.868;2022-11-25T05:05:03;21.53;44.66
66962;HTU21D;53897;51.126;5.868;2022-11-25T05:07:29;21.53;44.66
66962;HTU21D;53897;51.126;5.868;2022-11-25T05:09:56;21.51;44.67
66962;HTU21D;53897;51.126;5.868;2022-11-25T05:12:45;21.51;44.68
66962;HTU21D;53897;51.126;5.868;2022-11-25T05:15:15;21.51;44.69
66962;HTU21D;53897;51.126;5.868;2022-11-25T05:17:43;21.50;44.69
66962;HTU21D;53897;51.126;5.868;2022-11-25T05:20:09;21.49;44.68
66962;HTU21D;53897;51.126;5.868;2022-11-25T05:22:35;21.48;44.67
66962;HTU21D;53897;51.126;5.868;2022-11-25T05:25:03;21.48;44.69
66962;HTU21D;53897;51.126;5.868;2022-11-25T05:27:33;21.47;44.70
66962;HTU21D;53897;51.126;5.868;2022-11-25T05:30:03;21.46;44.68
66962;HTU21D;53897;51.126;5.868;2022-11-25T05:32:29;21.47;44.69
66962;HTU21D;53897;51.126;5.868;2022-11-25T05:34:57;21.46;44.68
66962;HTU21D;53897;51.126;5.868;2022-11-25T05:37:23;21.46;44.69
66962;HTU21D;53897;51.126;5.868;2022-11-25T05:39:53;21.46;44.67
66962;HTU21D;53897;51.126;5.868;2022-11-25T05:42:37;21.45;44.73
66962;HTU21D;53897;51.126;5.868;2022-11-25T05:45:06;21.45;44.74
66962;HTU21D;53897;51.126;5.868;2022-11-25T05:47:33;21.43;44.78
66962;HTU21D;53897;51.126;5.868;2022-11-25T05:49:59;21.40;44.90
66962;HTU21D;53897;51.126;5.868;2022-11-25T05:52:24;21.38;44.95
66962;HTU21D;53897;51.126;5.868;2022-11-25T05:54:55;21.37;45.03
66962;HTU21D;53897;51.126;5.868;2022-11-25T05:57:21;21.36;45.06
66962;HTU21D;53897;51.126;5.868;2022-11-25T05:59:57;21.33;45.09
66962;HTU21D;53897;51.126;5.868;2022-11-25T06:02:40;21.32;45.15
66962;HTU21D;53897;51.126;5.868;2022-11-25T06:05:07;21.30;45.24
66962;HTU21D;53897;51.126;5.868;2022-11-25T06:07:33;21.27;45.32
66962;HTU21D;53897;51.126;5.868;2022-11-25T06:09:59;21.25;45.37
66962;HTU21D;53897;51.126;5.868;2022-11-25T06:12:24;21.23;45.43
66962;HTU21D;53897;51.126;5.868;2022-11-25T06:14:50;21.22;45.49
66962;HTU21D;53897;51.126;5.868;2022-11-25T06:17:16;21.20;45.54
66962;HTU21D;53897;51.126;5.868;2022-11-25T06:20:04;21.18;45.61
66962;HTU21D;53897;51.126;5.868;2022-11-25T06:22:30;21.16;45.67
66962;HTU21D;53897;51.126;5.868;2022-11-25T06:24:56;21.14;45.72
66962;HTU21D;53897;51.126;5.868;2022-11-25T06:27:22;21.14;45.75
66962;HTU21D;53897;51.126;5.868;2022-11-25T06:29:48;21.15;45.74
66962;HTU21D;53897;51.126;5.868;2022-11-25T06:32:13;21.15;45.75
66962;HTU21D;53897;51.126;5.868;2022-11-25T06:34:42;21.18;45.72
66962;HTU21D;53897;51.126;5.868;2022-11-25T06:37:17;21.22;45.72
66962;HTU21D;53897;51.126;5.868;2022-11-25T06:39:42;21.27;45.78
66962;HTU21D;53897;51.126;5.868;2022-11-25T06:42:08;21.30;45.86
66962;HTU21D;53897;51.126;5.868;2022-11-25T06:44:34;21.36;45.92
66962;HTU21D;53897;51.126;5.868;2022-11-25T06:46:59;21.40;45.94
66962;HTU21D;53897;51.126;5.868;2022-11-25T06:49:25;21.47;45.93
66962;HTU21D;53897;51.126;5.868;2022-11-25T06:51:51;21.52;45.89
66962;HTU21D;53897;51.126;5.868;2022-11-25T06:54:16;21.55;45.85
66962;HTU21D;53897;51.126;5.868;2022-11-25T06:56:42;21.60;45.82
66962;HTU21D;53897;51.126;5.868;2022-11-25T06:59:08;21.65;45.78
66962;HTU21D;53897;51.126;5.868;2022-11-25T07:01:33;21.68;45.74
66962;HTU21D;53897;51.126;5.868;2022-11-25T07:04:02;21.73;45.69
66962;HTU21D;53897;51.126;5.868;2022-11-25T07:06:30;21.77;45.66
66962;HTU21D;53897;51.126;5.868;2022-11-25T07:08:56;21.79;45.61
66962;HTU21D;53897;51.126;5.868;2022-11-25T07:11:28;21.82;45.57
66962;HTU21D;53897;51.126;5.868;2022-11-25T07:14:01;21.85;45.54
66962;HTU21D;53897;51.126;5.868;2022-11-25T07:16:28;21.89;45.52
66962;HTU21D;53897;51.126;5.868;2022-11-25T07:18:54;21.91;45.50
66962;HTU21D;53897;51.126;5.868;2022-11-25T07:21:23;21.94;45.53
66962;HTU21D;53897;51.126;5.868;2022-11-25T07:23:50;21.97;45.49
66962;HTU21D;53897;51.126;5.868;2022-11-25T07:26:19;21.99;45.49
66962;HTU21D;53897;51.126;5.868;2022-11-25T07:28:47;22.02;45.49
66962;HTU21D;53897;51.126;5.868;2022-11-25T07:31:23;22.05;45.51
66962;HTU21D;53897;51.126;5.868;2022-11-25T07:33:54;22.06;45.55
66962;HTU21D;53897;51.126;5.868;2022-11-25T07:36:20;22.07;45.54
66962;HTU21D;53897;51.126;5.868;2022-11-25T07:38:47;22.10;45.48
66962;HTU21D;53897;51.126;5.868;2022-11-25T07:41:21;22.12;45.42
66962;HTU21D;53897;51.126;5.868;2022-11-25T07:43:50;22.13;45.36
66962;HTU21D;53897;51.126;5.868;2022-11-25T07:48:51;22.14;45.36
66962;HTU21D;53897;51.126;5.868;2022-11-25T07:51:23;22.14;45.36
66962;HTU21D;53897;51.126;5.868;2022-11-25T07:53:53;22.16;45.38
66962;HTU21D;53897;51.126;5.868;2022-11-25T07:56:19;22.18;45.39
66962;HTU21D;53897;51.126;5.868;2022-11-25T07:58:46;22.21;45.37
66962;HTU21D;53897;51.126;5.868;2022-11-25T08:01:13;22.20;45.38
66962;HTU21D;53897;51.126;5.868;2022-11-25T08:03:41;22.21;45.38
66962;HTU21D;53897;51.126;5.868;2022-11-25T08:06:09;22.21;45.38
66962;HTU21D;53897;51.126;5.868;2022-11-25T08:08:37;22.22;45.37
66962;HTU21D;53897;51.126;5.868;2022-11-25T08:11:08;22.23;45.34
66962;HTU21D;53897;51.126;5.868;2022-11-25T08:13:35;22.24;45.33
66962;HTU21D;53897;51.126;5.868;2022-11-25T08:16:01;22.25;45.32
66962;HTU21D;53897;51.126;5.868;2022-11-25T08:18:27;22.25;45.30
66962;HTU21D;53897;51.126;5.868;2022-11-25T08:21:05;22.27;45.30
66962;HTU21D;53897;51.126;5.868;2022-11-25T08:23:35;22.27;45.29
66962;HTU21D;53897;51.126;5.868;2022-11-25T08:26:10;22.26;45.27
66962;HTU21D;53897;51.126;5.868;2022-11-25T08:28:37;22.27;45.23
66962;HTU21D;53897;51.126;5.868;2022-11-25T08:31:05;22.27;45.25
66962;HTU21D;53897;51.126;5.868;2022-11-25T08:33:31;22.29;45.20
66962;HTU21D;53897;51.126;5.868;2022-11-25T08:35:57;22.28;45.18
66962;HTU21D;53897;51.126;5.868;2022-11-25T08:38:24;22.29;45.23
66962;HTU21D;53897;51.126;5.868;2022-11-25T08:40:50;22.31;45.25
66962;HTU21D;53897;51.126;5.868;2022-11-25T08:43:16;22.31;45.26
66962;HTU21D;53897;51.126;5.868;2022-11-25T08:45:43;22.32;45.25
66962;HTU21D;53897;51.126;5.868;2022-11-25T08:48:08;22.32;45.21
66962;HTU21D;53897;51.126;5.868;2022-11-25T08:50:34;22.33;45.16
66962;HTU21D;53897;51.126;5.868;2022-11-25T08:53:00;22.35;45.16
66962;HTU21D;53897;51.126;5.868;2022-11-25T08:55:27;22.35;45.15
66962;HTU21D;53897;51.126;5.868;2022-11-25T08:57:53;22.36;45.09
66962;HTU21D;53897;51.126;5.868;2022-11-25T09:00:20;22.37;45.06
66962;HTU21D;53897;51.126;5.868;2022-11-25T09:02:47;22.39;45.03
66962;HTU21D;53897;51.126;5.868;2022-11-25T09:05:15;22.40;44.92
66962;HTU21D;53897;51.126;5.868;2022-11-25T09:07:41;22.41;44.93
66962;HTU21D;53897;51.126;5.868;2022-11-25T09:10:13;22.41;44.93
66962;HTU21D;53897;51.126;5.868;2022-11-25T09:12:39;22.42;44.90
66962;HTU21D;53897;51.126;5.868;2022-11-25T09:15:05;22.42;44.86
66962;HTU21D;53897;51.126;5.868;2022-11-25T09:17:31;22.44;44.80
66962;HTU21D;53897;51.126;5.868;2022-11-25T09:19:59;22.46;44.76
66962;HTU21D;53897;51.126;5.868;2022-11-25T09:22:24;22.47;44.73
66962;HTU21D;53897;51.126;5.868;2022-11-25T09:24:50;22.47;44.71
66962;HTU21D;53897;51.126;5.868;2022-11-25T09:27:16;22.47;44.65
66962;HTU21D;53897;51.126;5.868;2022-11-25T09:29:41;22.49;44.63
66962;HTU21D;53897;51.126;5.868;2022-11-25T09:32:07;22.48;44.58
66962;HTU21D;53897;51.126;5.868;2022-11-25T09:34:33;22.49;44.54
66962;HTU21D;53897;51.126;5.868;2022-11-25T09:36:58;22.50;44.52
66962;HTU21D;53897;51.126;5.868;2022-11-25T09:39:24;22.51;44.50
66962;HTU21D;53897;51.126;5.868;2022-11-25T09:45:02;22.51;44.48
66962;HTU21D;53897;51.126;5.868;2022-11-25T09:48:36;22.51;44.52
66962;HTU21D;53897;51.126;5.868;2022-11-25T09:56:27;22.52;44.68
66962;HTU21D;53897;51.126;5.868;2022-11-25T10:01:45;22.54;44.65
66962;HTU21D;53897;51.126;5.868;2022-11-25T10:04:19;22.54;44.64
66962;HTU21D;53897;51.126;5.868;2022-11-25T10:06:52;22.55;44.67
66962;HTU21D;53897;51.126;5.868;2022-11-25T10:09:24;22.57;44.78
66962;HTU21D;53897;51.126;5.868;2022-11-25T10:11:54;22.56;44.87
66962;HTU21D;53897;51.126;5.868;2022-11-25T10:17:07;22.57;44.97
66962;HTU21D;53897;51.126;5.868;2022-11-25T10:24:43;22.61;44.94
66962;HTU21D;53897;51.126;5.868;2022-11-25T10:27:18;22.61;44.92
66962;HTU21D;53897;51.126;5.868;2022-11-25T10:30:00;22.63;44.93
66962;HTU21D;53897;51.126;5.868;2022-11-25T10:32:34;22.63;44.93
66962;HTU21D;53897;51.126;5.868;2022-11-25T10:35:06;22.63;44.93
66962;HTU21D;53897;51.126;5.868;2022-11-25T10:37:42;22.64;44.93
66962;HTU21D;53897;51.126;5.868;2022-11-25T10:40:15;22.65;44.92
66962;HTU21D;53897;51.126;5.868;2022-11-25T10:42:41;22.66;44.85
66962;HTU21D;53897;51.126;5.868;2022-11-25T10:45:09;22.65;44.83
66962;HTU21D;53897;51.126;5.868;2022-11-25T10:55:33;22.68;44.99
66962;HTU21D;53897;51.126;5.868;2022-11-25T11:01:23;22.69;45.15
66962;HTU21D;53897;51.126;5.868;2022-11-25T11:04:12;22.71;44.87
66962;HTU21D;53897;51.126;5.868;2022-11-25T11:06:45;22.71;44.99
66962;HTU21D;53897;51.126;5.868;2022-11-25T11:09:31;22.71;45.08
66962;HTU21D;53897;51.126;5.868;2022-11-25T11:11:57;22.75;45.19
66962;HTU21D;53897;51.126;5.868;2022-11-25T11:14:30;22.76;45.37
66962;HTU21D;53897;51.126;5.868;2022-11-25T11:16:56;22.75;45.33
66962;HTU21D;53897;51.126;5.868;2022-11-25T11:19:28;22.77;45.33
66962;HTU21D;53897;51.126;5.868;2022-11-25T11:21:57;22.78;45.34
66962;HTU21D;53897;51.126;5.868;2022-11-25T11:24:38;22.80;45.32
66962;HTU21D;53897;51.126;5.868;2022-11-25T11:27:18;22.81;45.29
66962;HTU21D;53897;51.126;5.868;2022-11-25T11:29:45;22.82;45.25
66962;HTU21D;53897;51.126;5.868;2022-11-25T11:32:26;22.84;45.25
66962;HTU21D;53897;51.126;5.868;2022-11-25T11:35:24;22.86;45.22
66962;HTU21D;53897;51.126;5.868;2022-11-25T11:37:58;22.87;45.21
66962;HTU21D;53897;51.126;5.868;2022-11-25T11:40:48;22.87;45.20
66962;HTU21D;53897;51.126;5.868;2022-11-25T11:43:43;22.90;45.17
66962;HTU21D;53897;51.126;5.868;2022-11-25T11:46:33;22.90;45.16
66962;HTU21D;53897;51.126;5.868;2022-11-25T11:52:04;22.91;45.14
66962;HTU21D;53897;51.126;5.868;2022-11-25T11:54:35;22.93;45.13
66962;HTU21D;53897;51.126;5.868;2022-11-25T11:57:30;22.94;45.12
66962;HTU21D;53897;51.126;5.868;2022-11-25T12:00:04;22.96;44.96
66962;HTU21D;53897;51.126;5.868;2022-11-25T12:03:00;22.94;44.97
66962;HTU21D;53897;51.126;5.868;2022-11-25T12:05:33;22.95;44.85
66962;HTU21D;53897;51.126;5.868;2022-11-25T12:08:10;22.96;44.84
66962;HTU21D;53897;51.126;5.868;2022-11-25T12:10:52;22.98;44.88
66962;HTU21D;53897;51.126;5.868;2022-11-25T12:13:36;22.98;44.90
66962;HTU21D;53897;51.126;5.868;2022-11-25T12:16:09;23.00;44.89
66962;HTU21D;53897;51.126;5.868;2022-11-25T12:21:39;23.02;44.87
66962;HTU21D;53897;51.126;5.868;2022-11-25T12:27:34;23.03;44.95
66962;HTU21D;53897;51.126;5.868;2022-11-25T12:30:06;23.05;44.98
66962;HTU21D;53897;51.126;5.868;2022-11-25T12:37:46;23.08;45.14
66962;HTU21D;53897;51.126;5.868;2022-11-25T12:40:41;23.09;45.16
66962;HTU21D;53897;51.126;5.868;2022-11-25T12:46:28;23.11;45.24
66962;HTU21D;53897;51.126;5.868;2022-11-25T12:48:58;23.12;45.22
66962;HTU21D;53897;51.126;5.868;2022-11-25T12:57:25;23.16;45.27
66962;HTU21D;53897;51.126;5.868;2022-11-25T13:00:20;23.17;45.26
66962;HTU21D;53897;51.126;5.868;2022-11-25T13:03:03;23.18;45.25
66962;HTU21D;53897;51.126;5.868;2022-11-25T13:17:08;23.27;45.22
66962;HTU21D;53897;51.126;5.868;2022-11-25T13:19:36;23.28;45.36
66962;HTU21D;53897;51.126;5.868;2022-11-25T13:22:03;23.26;45.39
66962;HTU21D;53897;51.126;5.868;2022-11-25T13:24:39;23.28;45.41
66962;HTU21D;53897;51.126;5.868;2022-11-25T13:27:29;23.29;45.43
66962;HTU21D;53897;51.126;5.868;2022-11-25T13:29:55;23.29;45.45
66962;HTU21D;53897;51.126;5.868;2022-11-25T13:32:33;23.30;45.46
66962;HTU21D;53897;51.126;5.868;2022-11-25T13:37:50;23.30;45.45
66962;HTU21D;53897;51.126;5.868;2022-11-25T13:42:51;23.32;45.41
66962;HTU21D;53897;51.126;5.868;2022-11-25T13:47:49;23.34;45.40
66962;HTU21D;53897;51.126;5.868;2022-11-25T13:53:04;23.32;45.38
66962;HTU21D;53897;51.126;5.868;2022-11-25T13:55:36;23.31;45.32
66962;HTU21D;53897;51.126;5.868;2022-11-25T13:58:23;23.34;45.31
66962;HTU21D;53897;51.126;5.868;2022-11-25T14:16:53;23.28;43.53
66962;HTU21D;53897;51.126;5.868;2022-11-25T14:22:36;23.26;43.97
66962;HTU21D;53897;51.126;5.868;2022-11-25T14:25:24;23.26;44.06
66962;HTU21D;53897;51.126;5.868;2022-11-25T14:27:59;23.25;44.33
66962;HTU21D;53897;51.126;5.868;2022-11-25T14:30:31;23.23;44.36
66962;HTU21D;53897;51.126;5.868;2022-11-25T14:33:04;23.22;44.48
66962;HTU21D;53897;51.126;5.868;2022-11-25T14:35:41;23.22;44.57
66962;HTU21D;53897;51.126;5.868;2022-11-25T14:38:16;23.20;44.61
66962;HTU21D;53897;51.126;5.868;2022-11-25T14:40:45;23.18;44.78
66962;HTU21D;53897;51.126;5.868;2022-11-25T14:43:21;23.14;44.99
66962;HTU21D;53897;51.126;5.868;2022-11-25T14:45:47;23.11;45.16
66962;HTU21D;53897;51.126;5.868;2022-11-25T14:48:32;23.09;45.28
66962;HTU21D;53897;51.126;5.868;2022-11-25T14:51:04;23.09;45.32
66962;HTU21D;53897;51.126;5.868;2022-11-25T14:53:43;23.09;45.34
66962;HTU21D;53897;51.126;5.868;2022-11-25T14:56:12;23.11;45.35
66962;HTU21D;53897;51.126;5.868;2022-11-25T14:58:40;23.12;45.41
66962;HTU21D;53897;51.126;5.868;2022-11-25T15:01:22;23.13;45.41
66962;HTU21D;53897;51.126;5.868;2022-11-25T15:03:50;23.15;45.45
66962;HTU21D;53897;51.126;5.868;2022-11-25T15:06:17;23.15;45.48
66962;HTU21D;53897;51.126;5.868;2022-11-25T15:08:53;23.15;45.54
66962;HTU21D;53897;51.126;5.868;2022-11-25T15:11:23;23.14;45.61
66962;HTU21D;53897;51.126;5.868;2022-11-25T15:14:00;23.15;45.61
66962;HTU21D;53897;51.126;5.868;2022-11-25T15:16:39;23.15;45.63
66962;HTU21D;53897;51.126;5.868;2022-11-25T15:19:18;23.16;45.67
66962;HTU21D;53897;51.126;5.868;2022-11-25T15:21:49;23.16;45.75
66962;HTU21D;53897;51.126;5.868;2022-11-25T15:24:23;23.15;45.83
66962;HTU21D;53897;51.126;5.868;2022-11-25T15:26:51;23.16;45.90
66962;HTU21D;53897;51.126;5.868;2022-11-25T15:29:18;23.15;45.92
66962;HTU21D;53897;51.126;5.868;2022-11-25T15:31:47;23.17;46.00
66962;HTU21D;53897;51.126;5.868;2022-11-25T15:34:15;23.17;46.15
66962;HTU21D;53897;51.126;5.868;2022-11-25T15:36:45;23.17;46.03
66962;HTU21D;53897;51.126;5.868;2022-11-25T15:39:15;23.18;46.05
66962;HTU21D;53897;51.126;5.868;2022-11-25T15:41:44;23.18;46.04
66962;HTU21D;53897;51.126;5.868;2022-11-25T15:49:21;23.18;45.93
66962;HTU21D;53897;51.126;5.868;2022-11-25T15:54:43;23.17;46.15
66962;HTU21D;53897;51.126;5.868;2022-11-25T15:57:22;23.17;46.17
66962;HTU21D;53897;51.126;5.868;2022-11-25T16:02:35;23.18;46.21
66962;HTU21D;53897;51.126;5.868;2022-11-25T16:18:51;23.18;45.66
66962;HTU21D;53897;51.126;5.868;2022-11-25T16:21:26;23.18;45.59
66962;HTU21D;53897;51.126;5.868;2022-11-25T16:24:13;23.17;45.63
66962;HTU21D;53897;51.126;5.868;2022-11-25T16:26:59;23.16;45.79
66962;HTU21D;53897;51.126;5.868;2022-11-25T16:29:32;23.16;45.97
66962;HTU21D;53897;51.126;5.868;2022-11-25T16:31:59;23.16;46.09
66962;HTU21D;53897;51.126;5.868;2022-11-25T16:34:26;23.15;46.41
66962;HTU21D;53897;51.126;5.868;2022-11-25T16:36:53;23.16;46.71
66962;HTU21D;53897;51.126;5.868;2022-11-25T16:39:19;23.17;46.99
66962;HTU21D;53897;51.126;5.868;2022-11-25T16:41:55;23.16;47.25
66962;HTU21D;53897;51.126;5.868;2022-11-25T16:44:24;23.16;47.60
66962;HTU21D;53897;51.126;5.868;2022-11-25T16:46:50;23.17;47.64
66962;HTU21D;53897;51.126;5.868;2022-11-25T16:49:17;23.17;47.86
66962;HTU21D;53897;51.126;5.868;2022-11-25T16:51:44;23.18;47.86
66962;HTU21D;53897;51.126;5.868;2022-11-25T16:54:10;23.20;47.76
66962;HTU21D;53897;51.126;5.868;2022-11-25T16:56:39;23.20;47.86
66962;HTU21D;53897;51.126;5.868;2022-11-25T16:59:14;23.21;47.90
66962;HTU21D;53897;51.126;5.868;2022-11-25T17:01:41;23.22;47.79
66962;HTU21D;53897;51.126;5.868;2022-11-25T17:04:10;23.22;47.75
66962;HTU21D;53897;51.126;5.868;2022-11-25T17:06:36;23.23;47.81
66962;HTU21D;53897;51.126;5.868;2022-11-25T17:09:03;23.23;47.65
66962;HTU21D;53897;51.126;5.868;2022-11-25T17:11:48;23.23;47.77
66962;HTU21D;53897;51.126;5.868;2022-11-25T17:14:30;23.24;47.90
66962;HTU21D;53897;51.126;5.868;2022-11-25T17:16:58;23.24;48.03
66962;HTU21D;53897;51.126;5.868;2022-11-25T17:19:24;23.24;48.13
66962;HTU21D;53897;51.126;5.868;2022-11-25T17:21:49;23.24;48.31
66962;HTU21D;53897;51.126;5.868;2022-11-25T17:24:21;23.25;48.35
66962;HTU21D;53897;51.126;5.868;2022-11-25T17:26:53;23.25;48.31
66962;HTU21D;53897;51.126;5.868;2022-11-25T17:29:28;23.24;48.39
66962;HTU21D;53897;51.126;5.868;2022-11-25T17:31:55;23.24;48.34
66962;HTU21D;53897;51.126;5.868;2022-11-25T17:34:21;23.24;48.14
66962;HTU21D;53897;51.126;5.868;2022-11-25T17:36:46;23.22;47.92
66962;HTU21D;53897;51.126;5.868;2022-11-25T17:39:13;23.21;47.65
66962;HTU21D;53897;51.126;5.868;2022-11-25T17:41:48;23.21;47.74